Wabigoon, Canada
Current Conditions -  °F | °C
As of 8:00 PM on Saturday 22 Nov 2014 (Local Time) from CYHD Reporting Station
Overcast Overcast  
Wind Chill: 21°   Ceiling: 1700
Heat Index: 28°   Visibility: 9mi
Dew Point: 27°   Wind: 7mph
Humidity: 93%   Direction: 100°E
Pressure: 29.55"   Gusts: NA
Location:  49.72°N, 92.6°W
Report Text: CYHD 230200Z AUTO 10006KT 9SM BKN017 OVC028 M02/M03 A2955 RMK SLP029
Loading
Personal Weather Stations






























Interactive Weather Map New forecast layout! Learn more

10-Day Weather Forecast

Advertisements
Track Severe Weather on mobile